Time;durP1;ratioP1;P1;durP2;ratioP2;P2;SDS_P1;SDS_P2;PMS_P1;PMS_P2;Temp;Humidity;BMP_temperature;BMP_pressure;BME280_temperature;BME280_humidity;BME280_pressure;Samples;Min_cycle;Max_cycle;Signal;HPM_P1;HPM_P2
2022/02/02 00:02:09;;;;;;;44.75;10.27;;;;;;;7.87;94.37;101439.97;4860928;29;20053;-47
2022/02/02 00:04:44;;;;;;;44.45;10.18;;;;;;;7.87;93.67;101443.50;4848036;29;20045;-48
2022/02/02 00:09:48;;;;;;;41.60;9.63;;;;;;;7.86;93.92;101468.16;4860651;29;20076;-47
2022/02/02 00:12:21;;;;;;;46.42;10.30;;;;;;;7.85;94.26;101455.66;4860156;29;20056;-50
2022/02/02 00:15:16;;;;;;;51.15;11.77;;;;;;;7.86;94.39;101457.28;4860085;29;20050;-47
2022/02/02 00:17:55;;;;;;;44.67;10.15;;;;;;;7.87;94.30;101450.81;4860480;29;20053;-48
2022/02/02 00:20:29;;;;;;;36.10;9.38;;;;;;;7.87;94.46;101456.25;4860201;29;20034;-47
2022/02/02 00:23:00;;;;;;;42.35;11.35;;;;;;;7.87;93.98;101467.09;4860241;29;20053;-49
2022/02/02 00:25:36;;;;;;;37.83;8.82;;;;;;;7.86;94.03;101460.00;4859484;29;20129;-47
2022/02/02 00:28:06;;;;;;;53.10;10.60;;;;;;;7.87;94.92;101453.53;4860563;29;20485;-49
2022/02/02 00:30:37;;;;;;;42.08;10.55;;;;;;;7.87;94.48;101454.34;4860420;29;20306;-48
2022/02/02 00:33:18;;;;;;;46.83;12.15;;;;;;;7.89;94.63;101443.28;4860293;29;20053;-49
2022/02/02 00:35:56;;;;;;;45.10;11.07;;;;;;;7.90;94.95;101453.88;4860441;29;20071;-47
2022/02/02 00:38:24;;;;;;;45.65;11.02;;;;;;;7.90;94.35;101464.72;4845319;29;20494;-46
2022/02/02 00:40:51;;;;;;;54.63;10.98;;;;;;;7.90;94.61;101472.06;4845229;29;20053;-49
2022/02/02 00:43:19;;;;;;;42.72;12.15;;;;;;;7.90;94.59;101466.63;4845435;29;20389;-50
2022/02/02 00:46:07;;;;;;;46.63;10.27;;;;;;;7.90;94.37;101472.88;4856519;29;20053;-48
2022/02/02 00:48:35;;;;;;;39.00;9.85;;;;;;;7.90;94.60;101472.88;4863021;29;20049;-50
2022/02/02 00:51:03;;;;;;;43.20;9.18;;;;;;;7.89;94.35;101456.84;4863574;29;20097;-49
2022/02/02 00:53:30;;;;;;;42.25;10.10;;;;;;;7.89;94.82;101462.28;4863284;29;20065;-49
2022/02/02 00:55:58;;;;;;;35.85;8.95;;;;;;;7.89;95.04;101462.28;4863148;29;20078;-51
2022/02/02 00:58:26;;;;;;;40.47;9.57;;;;;;;7.88;94.23;101457.88;4862812;29;20996;-52
2022/02/02 01:00:54;;;;;;;50.22;11.75;;;;;;;7.87;93.84;101457.06;4863212;29;20049;-49
2022/02/02 01:03:21;;;;;;;40.83;9.52;;;;;;;7.87;93.93;101473.34;4863532;29;20382;-50
2022/02/02 01:05:49;;;;;;;47.35;10.18;;;;;;;7.86;94.64;101460.00;4863253;29;20060;-53
2022/02/02 01:08:41;;;;;;;43.97;10.02;;;;;;;7.85;94.22;101452.94;4862280;29;20412;-48
2022/02/02 01:19:56;;;;;;;48.22;10.85;;;;;;;7.83;92.42;101482.19;4805468;29;20536;-48
2022/02/02 01:27:46;;;;;;;39.28;9.57;;;;;;;7.82;92.38;101481.38;4806027;29;20129;-48
2022/02/02 01:27:57;;;;;;;47.58;9.88;;;;;;;7.81;92.62;101476.16;4790452;29;20051;-48
2022/02/02 01:30:25;;;;;;;40.58;9.63;;;;;;;7.80;92.74;101485.38;4805641;29;20050;-47
2022/02/02 01:32:52;;;;;;;44.10;11.02;;;;;;;7.78;92.28;101492.91;4805899;29;20058;-47
2022/02/02 01:35:20;;;;;;;43.15;10.63;;;;;;;7.75;92.65;101467.09;4805564;29;20059;-48
2022/02/02 01:37:49;;;;;;;42.00;10.80;;;;;;;7.75;92.03;101482.53;4805727;29;20051;-48
2022/02/02 01:40:26;;;;;;;46.47;10.95;;;;;;;7.74;92.56;101483.56;4805081;29;20050;-48
2022/02/02 01:42:59;;;;;;;38.83;9.90;;;;;;;7.72;92.31;101486.53;4803878;29;20047;-48
2022/02/02 01:45:35;;;;;;;50.08;11.02;;;;;;;7.72;92.74;101485.69;4804449;29;20137;-49
2022/02/02 01:56:02;;;;;;;41.88;10.95;;;;;;;7.67;92.22;101511.66;4787206;30;20059;-53
2022/02/02 02:01:18;;;;;;;54.28;12.70;;;;;;;7.64;92.33;101500.41;4786760;30;20055;-47
2022/02/02 02:03:46;;;;;;;56.60;12.52;;;;;;;7.61;92.69;101509.84;4787044;30;20079;-47
2022/02/02 02:06:14;;;;;;;41.40;10.15;;;;;;;7.60;92.81;101543.47;4787154;30;20050;-47
2022/02/02 02:08:42;;;;;;;40.90;9.95;;;;;;;7.60;92.90;101545.31;4786307;30;20047;-48
2022/02/02 02:11:16;;;;;;;49.97;11.40;;;;;;;7.58;93.31;101523.88;4786885;30;20125;-50
2022/02/02 02:16:27;;;;;;;46.75;11.57;;;;;;;7.59;92.95;101543.69;4788806;30;20052;-49
2022/02/02 02:18:57;;;;;;;42.72;10.32;;;;;;;7.59;92.81;101535.53;4786693;30;20451;-48
2022/02/02 02:21:25;;;;;;;52.13;10.98;;;;;;;7.57;92.97;101524.91;4786666;29;20061;-48
2022/02/02 02:23:53;;;;;;;46.20;11.25;;;;;;;7.58;92.78;101523.88;4771919;30;20152;-48
2022/02/02 02:26:26;;;;;;;47.70;11.48;;;;;;;7.56;92.83;101531.41;4786580;30;20059;-49
2022/02/02 02:31:39;;;;;;;46.70;10.05;;;;;;;7.57;92.66;101515.97;4786575;30;20055;-47
2022/02/02 02:55:56;;;;;;;48.83;12.23;;;;;;;7.57;91.57;101521.38;4861188;29;20052;-49
2022/02/02 03:58:33;;;;;;;51.47;11.52;;;;;;;7.50;93.57;101540.44;4803377;29;20152;-51
2022/02/02 04:06:20;;;;;;;43.40;11.18;;;;;;;7.50;93.44;101535.03;4785395;30;20047;-48
2022/02/02 04:08:48;;;;;;;36.72;9.98;;;;;;;7.49;93.61;101544.22;4785422;30;20554;-49
2022/02/02 04:11:42;;;;;;;50.67;11.30;;;;;;;7.50;94.08;101545.06;4788878;29;20055;-48
2022/02/02 04:55:33;;;;;;;47.83;10.05;;;;;;;7.54;96.01;101559.81;4863023;29;19972;-49
2022/02/02 05:22:03;;;;;;;50.90;9.45;;;;;;;7.49;96.43;101616.63;4844558;29;20056;-50
2022/02/02 05:51:23;;;;;;;42.28;9.75;;;;;;;7.38;96.31;101640.72;4828121;29;20050;-47
2022/02/02 05:53:51;;;;;;;40.00;9.70;;;;;;;7.38;96.02;101648.03;4843818;29;20058;-47
2022/02/02 05:56:19;;;;;;;47.00;10.70;;;;;;;7.37;96.73;101639.06;4843623;29;20306;-45
2022/02/02 05:58:48;;;;;;;40.25;9.35;;;;;;;7.37;95.85;101649.91;4843424;29;20050;-47
2022/02/02 06:01:16;;;;;;;38.60;9.05;;;;;;;7.38;96.79;101653.44;4843706;29;20042;-45
2022/02/02 06:03:51;;;;;;;41.35;9.60;;;;;;;7.36;96.46;101655.53;4843883;29;20043;-48
2022/02/02 06:06:22;;;;;;;38.33;10.00;;;;;;;7.36;95.92;101650.13;4844078;29;20080;-48
2022/02/02 06:08:51;;;;;;;44.13;9.13;;;;;;;7.35;96.46;101648.47;4841965;29;20049;-52
2022/02/02 06:11:23;;;;;;;32.03;7.22;;;;;;;7.35;96.73;101653.91;4843731;29;20050;-49
2022/02/02 06:13:55;;;;;;;35.03;9.35;;;;;;;7.35;96.21;101664.75;4858002;29;20061;-52
2022/02/02 06:16:27;;;;;;;43.70;9.45;;;;;;;7.33;97.15;101669.56;4862040;29;20052;-48
2022/02/02 06:18:56;;;;;;;40.35;9.30;;;;;;;7.33;96.85;101672.28;4860985;29;20045;-51
2022/02/02 06:21:33;;;;;;;40.28;9.43;;;;;;;7.32;96.60;101681.47;4861917;29;20428;-48
2022/02/02 06:24:07;;;;;;;40.80;10.05;;;;;;;7.30;97.28;101683.56;4861976;29;20061;-49
2022/02/02 06:26:37;;;;;;;45.38;10.73;;;;;;;7.28;97.41;101672.94;4862366;29;20053;-49
2022/02/02 06:29:07;;;;;;;47.47;11.40;;;;;;;7.28;96.87;101688.38;4860986;29;20046;-49
2022/02/02 06:31:37;;;;;;;44.47;10.18;;;;;;;7.26;97.54;101685.88;4843410;29;20405;-47
2022/02/02 06:34:07;;;;;;;45.75;10.15;;;;;;;7.24;97.63;101685.31;4843216;29;20064;-46
2022/02/02 06:36:37;;;;;;;38.55;9.43;;;;;;;7.23;97.22;101683.63;4843229;29;20050;-47
2022/02/02 06:39:07;;;;;;;50.58;9.80;;;;;;;7.23;97.98;101689.88;4860901;29;20140;-47
2022/02/02 06:41:35;;;;;;;45.45;9.93;;;;;;;7.24;97.65;101698.88;4844647;29;20045;-47
2022/02/02 06:44:05;;;;;;;39.22;9.77;;;;;;;7.24;97.61;101690.72;4861428;29;20050;-51
2022/02/02 06:46:36;;;;;;;42.67;9.65;;;;;;;7.24;97.46;101686.13;4861607;29;20045;-49
2022/02/02 06:49:04;;;;;;;39.05;9.82;;;;;;;7.22;97.72;101693.66;4860966;29;20045;-48
2022/02/02 06:51:42;;;;;;;47.13;9.50;;;;;;;7.22;97.70;101707.22;4861049;29;20042;-48
2022/02/02 06:54:26;;;;;;;43.83;10.23;;;;;;;7.23;97.86;101710.75;4861496;29;20136;-48
2022/02/02 06:57:14;;;;;;;42.88;8.82;;;;;;;7.21;97.20;101719.09;4861418;29;20416;-47
2022/02/02 07:08:03;;;;;;;37.38;8.50;;;;;;;7.20;97.41;101722.88;4860948;29;20408;-52
2022/02/02 07:21:57;;;;;;;43.45;9.70;;;;;;;7.23;97.82;101738.66;4767273;30;20136;-48
2022/02/02 07:25:12;;;;;;;44.53;8.80;;;;;;;7.24;97.98;101739.53;4766090;30;20071;-47
2022/02/02 07:27:45;;;;;;;37.22;8.80;;;;;;;7.22;97.63;101739.72;4764186;30;20449;-45
2022/02/02 07:32:48;;;;;;;42.30;9.38;;;;;;;7.21;98.73;101753.50;4774142;30;20052;-47
2022/02/02 07:37:53;;;;;;;45.08;9.00;;;;;;;7.21;98.95;101767.06;4764277;30;20067;-47
2022/02/02 07:40:21;;;;;;;36.10;9.35;;;;;;;7.21;99.64;101767.88;4764317;30;20632;-48
2022/02/02 07:42:51;;;;;;;38.97;9.50;;;;;;;7.23;99.79;101768.50;4765932;30;20059;-49
2022/02/02 07:45:21;;;;;;;41.65;9.43;;;;;;;7.25;99.13;101768.28;4763930;30;20059;-50
2022/02/02 07:48:03;;;;;;;45.90;10.40;;;;;;;7.25;99.55;101774.53;4764265;30;20065;-51
2022/02/02 07:50:34;;;;;;;42.22;10.05;;;;;;;7.26;99.66;101769.91;4809551;29;20106;-48
2022/02/02 07:53:08;;;;;;;43.50;9.45;;;;;;;7.28;99.86;101775.13;4856802;29;20045;-48
2022/02/02 07:55:39;;;;;;;44.03;9.18;;;;;;;7.28;100.00;101791.41;4857548;29;20053;-49
2022/02/02 07:58:10;;;;;;;37.47;8.90;;;;;;;7.28;99.92;101780.56;4857292;29;20057;-48
2022/02/02 08:00:37;;;;;;;44.70;9.80;;;;;;;7.27;100.00;101776.19;4856994;29;20053;-47
2022/02/02 08:05:38;;;;;;;41.95;10.30;;;;;;;7.26;100.00;101783.47;4857113;29;20059;-47
2022/02/02 08:10:51;;;;;;;35.65;9.45;;;;;;;7.27;100.00;101789.75;4842589;29;20060;-52
2022/02/02 08:13:36;;;;;;;38.15;9.27;;;;;;;7.28;100.00;101804.94;4856736;29;20066;-50
2022/02/02 08:16:08;;;;;;;50.30;10.05;;;;;;;7.29;100.00;101812.00;4843206;29;20106;-51
2022/02/02 08:18:38;;;;;;;42.80;9.30;;;;;;;7.31;100.00;101812.63;4857270;29;20060;-48
2022/02/02 08:21:06;;;;;;;41.10;9.95;;;;;;;7.32;100.00;101811.59;4857711;29;20520;-53
2022/02/02 08:23:34;;;;;;;36.30;9.27;;;;;;;7.31;100.00;101818.06;4857388;29;20120;-48
2022/02/02 08:26:05;;;;;;;45.58;9.68;;;;;;;7.31;100.00;101816.19;4856989;29;20045;-48
2022/02/02 08:28:33;;;;;;;40.25;9.18;;;;;;;7.31;100.00;101818.06;4856629;29;20724;-50
2022/02/02 08:31:01;;;;;;;43.50;9.77;;;;;;;7.32;100.00;101811.59;4857604;29;20045;-49
2022/02/02 08:33:34;;;;;;;40.78;9.68;;;;;;;7.32;100.00;101817.84;4859613;29;20050;-49
2022/02/02 08:36:04;;;;;;;43.40;9.73;;;;;;;7.34;100.00;101818.44;4859977;29;20120;-50
2022/02/02 08:38:42;;;;;;;38.60;9.13;;;;;;;7.36;100.00;101818.22;4860256;29;20390;-49
2022/02/02 08:41:26;;;;;;;36.97;9.15;;;;;;;7.35;100.00;101825.53;4860135;29;20045;-48
2022/02/02 08:44:03;;;;;;;39.20;9.50;;;;;;;7.42;100.00;101822.75;4858516;29;20132;-48
2022/02/02 08:46:35;;;;;;;38.00;9.55;;;;;;;7.42;100.00;101829.00;4859664;29;20128;-50
2022/02/02 08:49:06;;;;;;;44.30;9.40;;;;;;;7.43;100.00;101841.53;4859965;29;20050;-49
2022/02/02 08:51:42;;;;;;;39.92;8.85;;;;;;;7.43;100.00;101846.09;4860051;29;20133;-50
2022/02/02 08:57:17;;;;;;;43.50;9.32;;;;;;;7.46;100.00;101861.94;4859943;29;20042;-52
2022/02/02 08:59:43;;;;;;;43.25;10.07;;;;;;;7.46;100.00;101862.78;4848924;29;20045;-48
2022/02/02 09:02:16;;;;;;;39.72;8.90;;;;;;;7.46;100.00;101868.19;4862872;29;20054;-52
2022/02/02 09:07:31;;;;;;;43.35;8.88;;;;;;;7.50;100.00;101863.13;4863274;29;20152;-49
2022/02/02 09:31:25;;;;;;;39.67;8.43;;;;;;;7.57;100.00;101858.50;4804968;29;20055;-50
2022/02/02 09:32:31;;;;;;;34.65;8.48;;;;;;;7.59;100.00;101864.53;4805727;29;20043;-50
2022/02/02 09:34:59;;;;;;;42.60;9.07;;;;;;;7.60;100.00;101868.91;4805306;29;20055;-51
2022/02/02 09:37:28;;;;;;;38.95;8.27;;;;;;;7.61;100.00;101870.56;4804706;29;20506;-51
2022/02/02 09:40:08;;;;;;;41.05;9.45;;;;;;;7.63;100.00;101873.88;4805629;29;20478;-47
2022/02/02 09:42:36;;;;;;;42.75;9.43;;;;;;;7.66;100.00;101872.59;4805366;29;20410;-52
2022/02/02 09:45:09;;;;;;;43.67;10.20;;;;;;;7.69;100.00;101874.88;4805357;29;20051;-55
2022/02/02 09:47:47;;;;;;;41.70;9.30;;;;;;;7.72;100.00;101870.88;4804832;29;20144;-54
2022/02/02 09:50:22;;;;;;;43.50;9.50;;;;;;;7.74;100.00;101880.44;4805299;29;20169;-52
2022/02/02 09:52:56;;;;;;;39.63;8.35;;;;;;;7.77;100.00;101879.16;4805605;29;20065;-49
2022/02/02 09:56:12;;;;;;;38.63;9.13;;;;;;;7.80;100.00;101892.31;4805573;29;20057;-52
2022/02/02 09:58:30;;;;;;;32.60;7.85;;;;;;;7.83;100.00;101900.81;4802201;29;20051;-49
2022/02/02 10:10:15;;;;;;;40.63;9.52;;;;;;;7.92;100.00;101903.28;4821395;29;20054;-49
2022/02/02 10:15:21;;;;;;;39.03;9.95;;;;;;;7.99;99.68;101918.44;4822995;29;20139;-49
2022/02/02 10:18:12;;;;;;;37.58;8.85;;;;;;;7.99;100.00;101925.75;4822699;29;20111;-51
2022/02/02 10:20:40;;;;;;;35.25;9.00;;;;;;;8.01;99.73;101934.47;4805188;29;20062;-50
2022/02/02 10:23:08;;;;;;;34.47;9.20;;;;;;;8.04;99.99;101945.72;4804496;29;20066;-49
2022/02/02 10:25:43;;;;;;;34.90;8.27;;;;;;;8.18;99.37;101945.56;4804900;29;20047;-49
2022/02/02 10:28:15;;;;;;;39.72;9.63;;;;;;;8.19;98.41;101947.25;4805545;29;20130;-49
2022/02/02 10:30:53;;;;;;;36.92;8.85;;;;;;;8.14;98.52;101947.09;4790441;29;20055;-47
2022/02/02 10:33:26;;;;;;;41.53;10.25;;;;;;;8.10;97.00;101947.56;4804526;29;20051;-51
2022/02/02 10:36:09;;;;;;;43.72;10.68;;;;;;;8.08;97.87;101941.53;4804510;29;20447;-51
2022/02/02 10:39:13;;;;;;;37.75;8.85;;;;;;;8.07;98.36;101956.13;4791312;29;20073;-47
2022/02/02 10:41:49;;;;;;;31.88;7.05;;;;;;;8.10;98.86;101960.28;4820702;29;20115;-49
2022/02/02 10:44:27;;;;;;;39.58;8.63;;;;;;;8.11;98.68;101968.22;4859135;29;20499;-48
2022/02/02 10:47:05;;;;;;;37.60;7.90;;;;;;;8.14;99.12;101977.78;4861146;29;20033;-52
2022/02/02 10:49:47;;;;;;;38.40;8.45;;;;;;;8.16;99.41;101980.28;4861092;29;20523;-51
2022/02/02 10:52:44;;;;;;;32.53;8.85;;;;;;;8.15;98.26;101981.31;4861004;29;20052;-48
2022/02/02 10:58:02;;;;;;;29.65;8.82;;;;;;;8.15;97.50;101986.75;4860912;29;20049;-50
2022/02/02 11:00:52;;;;;;;33.65;8.05;;;;;;;8.15;97.64;101981.31;4860280;29;20053;-47
2022/02/02 11:08:52;;;;;;;32.15;7.55;;;;;;;8.18;97.07;101957.28;4860440;29;20057;-46
2022/02/02 11:11:21;;;;;;;32.92;7.78;;;;;;;8.21;97.29;101964.16;4844569;29;20053;-47
2022/02/02 11:13:58;;;;;;;28.73;6.75;;;;;;;8.23;97.36;101975.63;4860496;29;20544;-53
2022/02/02 11:16:29;;;;;;;34.95;8.77;;;;;;;8.23;96.44;101975.63;4844511;29;20056;-50
2022/02/02 11:18:58;;;;;;;38.30;8.98;;;;;;;8.23;96.16;101970.19;4828705;29;20501;-52
2022/02/02 11:21:34;;;;;;;31.92;8.32;;;;;;;8.25;96.56;101965.34;4859579;29;20048;-53
2022/02/02 11:24:24;;;;;;;29.42;7.78;;;;;;;8.29;96.77;101963.84;4860725;29;20057;-50
2022/02/02 11:26:51;;;;;;;36.10;9.32;;;;;;;8.30;96.73;101966.34;4860818;29;20513;-52
2022/02/02 11:29:48;;;;;;;32.08;7.60;;;;;;;8.36;96.36;101975.47;4860244;29;20045;-51
2022/02/02 11:32:17;;;;;;;33.42;8.95;;;;;;;8.39;95.81;101968.75;4803048;29;20046;-47
2022/02/02 11:34:45;;;;;;;37.35;8.93;;;;;;;8.42;95.12;101971.91;4821478;29;20137;-49
2022/02/02 11:37:12;;;;;;;33.60;8.05;;;;;;;8.45;94.18;101963.31;4821501;29;20050;-48
2022/02/02 11:40:01;;;;;;;35.78;8.82;;;;;;;8.45;94.09;101976.88;4821410;29;20047;-50
2022/02/02 11:45:34;;;;;;;30.52;7.57;;;;;;;8.49;95.10;101985.41;4785045;30;20059;-50
2022/02/02 11:48:10;;;;;;;30.70;7.82;;;;;;;8.50;94.88;101977.03;4785390;30;20067;-51
2022/02/02 11:50:53;;;;;;;37.17;8.30;;;;;;;8.54;95.11;101985.56;4784930;30;20233;-48
2022/02/02 11:53:50;;;;;;;33.67;9.30;;;;;;;8.58;94.26;101984.03;4784712;30;20051;-49
2022/02/02 11:56:19;;;;;;;32.97;7.28;;;;;;;8.59;93.11;101974.84;4120694;29;10000332;-46
2022/02/02 11:58:47;;;;;;;32.45;9.13;;;;;;;8.62;92.06;101979.00;4782059;30;20066;-48
2022/02/02 12:01:35;;;;;;;35.15;8.25;;;;;;;8.62;92.21;101992.59;4780633;30;20419;-49
2022/02/02 12:04:24;;;;;;;33.13;8.93;;;;;;;8.63;89.43;101984.19;4781448;30;20074;-52
2022/02/02 12:07:00;;;;;;;33.85;8.60;;;;;;;8.64;89.14;101996.75;4792076;29;20055;-49
2022/02/02 12:09:41;;;;;;;38.42;7.93;;;;;;;8.65;89.73;101979.38;4825868;29;20061;-50
2022/02/02 12:48:58;;;;;;;34.97;8.30;;;;;;;9.01;85.04;101971.41;4863321;29;20052;-50
2022/02/02 12:57:31;;;;;;;31.40;7.72;;;;;;;8.95;84.33;101970.47;4788203;30;20056;-50
2022/02/02 13:00:10;;;;;;;33.38;7.25;;;;;;;8.93;84.28;101956.25;4788016;30;20051;-51
2022/02/02 13:02:42;;;;;;;32.55;7.38;;;;;;;8.93;84.33;101957.09;4779204;30;20112;-51
2022/02/02 13:05:10;;;;;;;30.30;6.95;;;;;;;8.93;85.16;101948.09;4770212;30;20051;-52
2022/02/02 13:07:41;;;;;;;34.33;8.02;;;;;;;8.93;85.35;101948.94;4770044;30;20048;-48
2022/02/02 13:10:12;;;;;;;28.50;7.85;;;;;;;8.92;83.48;101944.56;4770231;30;20044;-53
2022/02/02 13:12:51;;;;;;;30.08;7.78;;;;;;;8.90;83.29;101943.97;4770601;30;20483;-49
2022/02/02 13:18:25;;;;;;;28.85;6.78;;;;;;;8.89;83.30;101947.72;4770410;30;20178;-45
2022/02/02 13:21:03;;;;;;;31.73;7.03;;;;;;;8.87;83.36;101944.41;4755150;30;20515;-52
2022/02/02 13:24:11;;;;;;;24.63;6.28;;;;;;;8.87;83.88;101955.25;4786288;30;20065;-49
2022/02/02 13:26:48;;;;;;;28.85;7.15;;;;;;;8.89;84.15;101947.72;4787835;30;20052;-51
2022/02/02 13:32:14;;;;;;;27.73;7.60;;;;;;;8.94;84.29;101949.75;4797932;29;20050;-46
2022/02/02 13:35:12;;;;;;;24.42;6.95;;;;;;;8.95;84.19;101946.81;4862887;29;20049;-48
2022/02/02 14:02:20;;;;;;;28.20;6.88;;;;;;;8.91;85.48;101988.28;4786652;30;20090;-50
2022/02/02 14:05:20;;;;;;;29.60;7.13;;;;;;;8.90;84.84;101986.63;4787209;30;20051;-49
2022/02/02 14:08:58;;;;;;;30.50;7.40;;;;;;;8.90;85.39;101984.72;4787049;30;20052;-49
2022/02/02 14:33:03;;;;;;;32.05;6.68;;;;;;;9.02;86.95;102017.41;4769904;30;20099;-49
2022/02/02 14:35:30;;;;;;;30.17;7.57;;;;;;;9.03;87.15;102013.63;4768787;30;20222;-54
2022/02/02 14:37:59;;;;;;;30.05;6.72;;;;;;;9.03;87.26;102001.94;4769088;29;20047;-53
2022/02/02 14:40:45;;;;;;;24.92;6.57;;;;;;;9.03;87.44;102012.81;4843987;29;20042;-53
2022/02/02 14:43:15;;;;;;;29.50;6.95;;;;;;;9.04;86.89;102004.41;4859611;29;20049;-52
2022/02/02 14:45:49;;;;;;;26.58;6.93;;;;;;;9.03;86.72;102007.38;4860897;29;20125;-49
2022/02/02 14:48:31;;;;;;;27.60;6.55;;;;;;;9.02;86.54;102002.97;4844981;29;20484;-49
2022/02/02 14:51:11;;;;;;;25.48;5.95;;;;;;;9.01;86.30;102009.47;4861682;29;20507;-48
2022/02/02 15:29:31;;;;;;;25.05;6.63;;;;;;;8.90;90.80;102025.50;4861068;29;20057;-49
2022/02/02 15:31:59;;;;;;;26.65;6.38;;;;;;;8.89;91.16;102026.53;4860080;29;20046;-49
2022/02/02 15:35:08;;;;;;;31.02;7.20;;;;;;;8.88;91.42;102035.75;4860070;29;20068;-48
2022/02/02 15:37:36;;;;;;;25.48;7.00;;;;;;;8.88;90.99;102032.22;4857259;29;20054;-49
2022/02/02 15:40:11;;;;;;;23.55;6.65;;;;;;;8.87;90.91;102025.09;4860326;29;20049;-51
2022/02/02 15:59:06;;;;;;;21.25;6.00;;;;;;;8.86;92.42;102015.31;4800071;29;20063;-48
2022/02/02 16:04:24;;;;;;;26.23;6.43;;;;;;;8.87;92.66;102012.34;4801059;29;20130;-50
2022/02/02 16:06:54;;;;;;;23.70;6.25;;;;;;;8.88;93.09;102016.75;4801975;29;20599;-49
2022/02/02 16:09:29;;;;;;;35.42;6.68;;;;;;;8.87;93.09;102017.78;4803583;29;20134;-48
2022/02/02 16:12:09;;;;;;;22.00;6.10;;;;;;;8.87;94.29;102019.66;4803442;29;20096;-49
2022/02/02 16:14:44;;;;;;;22.13;6.03;;;;;;;8.84;94.80;102010.09;4804366;29;20633;-52
2022/02/02 16:36:38;;;;;;;16.58;5.00;;;;;;;8.76;98.13;102009.56;4860154;29;20493;-50
2022/02/02 16:44:19;;;;;;;18.60;5.78;;;;;;;8.72;97.91;102011.91;4860218;29;20059;-52
2022/02/02 16:46:48;;;;;;;23.02;5.72;;;;;;;8.71;98.79;102021.94;4859446;29;20057;-51
2022/02/02 16:49:16;;;;;;;20.17;5.80;;;;;;;8.71;98.51;102016.50;4860015;29;20045;-52
2022/02/02 16:51:43;;;;;;;21.25;5.80;;;;;;;8.72;98.85;102009.19;4859834;29;20401;-50
2022/02/02 17:30:09;;;;;;;17.85;6.45;;;;;;;8.73;99.78;102008.13;4859231;29;20049;-52
2022/02/02 17:32:52;;;;;;;14.43;5.60;;;;;;;8.72;100.00;102006.47;4859396;29;20060;-50
2022/02/02 17:41:09;;;;;;;15.60;5.30;;;;;;;8.76;100.00;102023.16;4858329;29;20517;-50
2022/02/02 18:15:36;;;;;;;14.30;5.30;;;;;;;8.69;100.00;102042.25;4841823;29;20060;-48
2022/02/02 18:19:20;;;;;;;12.07;5.20;;;;;;;8.71;100.00;102046.41;4858785;29;20053;-49
2022/02/02 18:21:48;;;;;;;14.85;5.22;;;;;;;8.71;100.00;102042.88;4858122;29;20050;-52
2022/02/02 18:24:23;;;;;;;11.57;5.13;;;;;;;8.70;100.00;102031.13;4858759;29;20049;-52
2022/02/02 18:27:00;;;;;;;15.30;5.57;;;;;;;8.71;100.00;102048.28;4858469;29;20416;-52
2022/02/02 18:29:38;;;;;;;15.88;5.55;;;;;;;8.73;100.00;102046.16;4839911;29;20046;-53
2022/02/02 18:32:18;;;;;;;12.07;5.13;;;;;;;8.72;100.00;102041.78;4826848;29;20045;-54
2022/02/02 18:34:55;;;;;;;13.60;5.35;;;;;;;8.71;100.00;102038.25;4858585;29;20053;-50
2022/02/02 18:54:01;;;;;;;11.40;4.95;;;;;;;8.73;100.00;102049.72;4858051;29;20038;-53
2022/02/02 18:57:00;;;;;;;11.13;5.18;;;;;;;8.73;100.00;102046.16;4857896;29;20073;-51
2022/02/02 19:37:16;;;;;;;9.93;5.60;;;;;;;8.75;100.00;102038.63;4858527;29;20421;-50
2022/02/02 19:40:14;;;;;;;11.32;6.53;;;;;;;8.76;100.00;102034.84;4857786;29;20057;-50
2022/02/02 19:56:46;;;;;;;14.38;8.70;;;;;;;8.79;100.00;102028.13;4856937;29;20057;-50
2022/02/02 20:12:24;;;;;;;19.95;13.27;;;;;;;8.77;100.00;102046.56;4857279;29;20495;-50
2022/02/02 20:14:52;;;;;;;20.92;14.35;;;;;;;8.77;100.00;102041.13;4856630;29;20791;-49
2022/02/02 20:17:23;;;;;;;20.20;14.35;;;;;;;8.77;100.00;102038.41;4856934;29;20157;-49
2022/02/02 20:19:57;;;;;;;21.15;15.25;;;;;;;8.77;100.00;102033.78;4856495;29;20584;-49
2022/02/02 20:22:28;;;;;;;21.30;15.82;;;;;;;8.79;100.00;102030.84;4856807;29;20638;-49
2022/02/02 20:24:59;;;;;;;23.73;16.65;;;;;;;8.79;100.00;102020.81;4856881;29;20042;-50
2022/02/02 20:27:30;;;;;;;24.30;17.80;;;;;;;8.79;100.00;102028.97;4857210;29;20073;-52
2022/02/02 20:30:00;;;;;;;22.30;17.70;;;;;;;8.81;100.00;102021.41;4857327;29;20173;-51
2022/02/02 20:32:27;;;;;;;24.90;19.08;;;;;;;8.83;100.00;102019.31;4840544;29;20137;-49
2022/02/02 20:34:55;;;;;;;25.55;19.88;;;;;;;8.81;100.00;102021.41;4857104;29;20075;-51
2022/02/02 20:37:23;;;;;;;24.00;19.13;;;;;;;8.79;100.00;102026.25;4856255;29;20057;-49
2022/02/02 20:39:55;;;;;;;25.33;20.17;;;;;;;8.79;100.00;102031.69;4856599;29;20813;-53
2022/02/02 21:04:58;;;;;;;26.90;21.65;;;;;;;8.85;100.00;102043.53;4769724;30;19929;-51
2022/02/02 21:15:27;;;;;;;22.27;18.65;;;;;;;8.86;100.00;102032.44;4784724;29;20074;-50
2022/02/02 21:17:57;;;;;;;28.77;22.10;;;;;;;8.88;100.00;102024.88;4841748;29;20057;-53
2022/02/02 21:20:35;;;;;;;27.50;21.77;;;;;;;8.88;100.00;102021.34;4858678;29;20049;-52
2022/02/02 21:23:10;;;;;;;27.95;23.27;;;;;;;8.88;100.00;102024.88;4843151;29;20045;-50
2022/02/02 21:26:12;;;;;;;26.50;21.48;;;;;;;8.88;100.00;102030.31;4859745;29;20054;-53
2022/02/02 21:28:36;;;;;;;27.95;21.23;;;;;;;8.88;100.00;102037.66;4858910;29;20061;-53
2022/02/02 21:31:05;;;;;;;24.38;21.15;;;;;;;8.88;100.00;102032.22;4859447;29;20057;-50
2022/02/02 21:33:38;;;;;;;28.40;22.13;;;;;;;8.88;100.00;102038.47;4859324;29;20523;-50
2022/02/02 21:36:10;;;;;;;29.40;22.55;;;;;;;8.89;100.00;102045.56;4859699;29;20458;-48
2022/02/02 21:38:53;;;;;;;27.20;21.38;;;;;;;8.88;100.00;102056.69;4859238;29;20129;-51
2022/02/02 21:41:28;;;;;;;28.17;22.83;;;;;;;8.88;100.00;102053.97;4857782;29;20049;-53
2022/02/02 21:43:55;;;;;;;27.10;21.90;;;;;;;8.88;100.00;102052.06;4859261;29;20068;-54
2022/02/02 21:46:25;;;;;;;22.23;19.63;;;;;;;8.87;100.00;102039.53;4859830;29;20065;-54
2022/02/02 21:48:59;;;;;;;24.00;21.13;;;;;;;8.87;100.00;102042.25;4860499;29;20050;-51
2022/02/02 21:51:35;;;;;;;24.88;20.33;;;;;;;8.87;100.00;102033.25;4859890;29;20065;-48
2022/02/02 21:54:02;;;;;;;27.10;20.08;;;;;;;8.87;100.00;102031.38;4859418;29;20082;-48
2022/02/02 21:56:30;;;;;;;22.90;18.10;;;;;;;8.88;100.00;102026.78;4859143;29;20050;-50
2022/02/02 21:58:58;;;;;;;22.52;19.48;;;;;;;8.89;100.00;102028.44;4859257;29;20659;-49
2022/02/02 22:01:27;;;;;;;26.35;18.67;;;;;;;8.89;100.00;102034.69;4859013;29;20041;-49
2022/02/02 22:03:55;;;;;;;20.42;18.15;;;;;;;8.89;100.00;102034.69;4857995;29;20054;-50
2022/02/02 22:06:23;;;;;;;20.75;17.45;;;;;;;8.88;100.00;102033.03;4859186;29;20049;-48
2022/02/02 22:08:50;;;;;;;23.63;18.35;;;;;;;8.88;100.00;102024.88;4855039;29;20061;-48
2022/02/02 22:11:18;;;;;;;23.35;18.85;;;;;;;8.87;100.00;102025.09;4840459;29;20045;-49
2022/02/02 22:13:55;;;;;;;20.48;18.10;;;;;;;8.86;100.00;102016.13;4851130;29;20065;-48
2022/02/02 22:16:23;;;;;;;19.77;17.65;;;;;;;8.86;100.00;102029.72;4858770;29;20517;-50
2022/02/02 22:18:52;;;;;;;23.05;19.70;;;;;;;8.86;100.00;102027.00;4858612;29;20484;-49
2022/02/02 22:21:20;;;;;;;23.73;19.65;;;;;;;8.88;100.00;102029.50;4858103;29;20057;-50
2022/02/02 22:23:47;;;;;;;25.27;19.95;;;;;;;8.87;100.00;102025.94;4858283;29;20100;-53
2022/02/02 22:26:17;;;;;;;24.30;21.15;;;;;;;8.84;100.00;102031.81;4858930;29;20409;-50
2022/02/02 22:28:45;;;;;;;25.92;19.90;;;;;;;8.83;100.00;102024.75;4858829;29;20045;-50
2022/02/02 22:31:13;;;;;;;24.65;20.38;;;;;;;8.83;100.00;102024.75;4858295;29;20462;-48
2022/02/02 22:33:40;;;;;;;24.13;20.13;;;;;;;8.81;100.00;102029.56;4858175;29;20053;-53
2022/02/02 22:36:13;;;;;;;24.25;20.13;;;;;;;8.81;100.00;102020.59;4858542;29;20077;-49
2022/02/02 22:38:43;;;;;;;21.27;18.98;;;;;;;8.83;100.00;102021.19;4860434;29;20056;-49
2022/02/02 22:41:12;;;;;;;22.67;19.27;;;;;;;8.83;100.00;102027.47;4861306;29;20053;-51